sensor_id;sensor_type;location;lat;lon;timestamp;P1;durP1;ratioP1;P2;durP2;ratioP2
5845;SDS011;2949;50.778;7.094;2023-11-21T00:01:52;5.43;;;3.60;;
5845;SDS011;2949;50.778;7.094;2023-11-21T00:04:17;3.97;;;3.40;;
5845;SDS011;2949;50.778;7.094;2023-11-21T00:06:43;11.50;;;5.53;;
5845;SDS011;2949;50.778;7.094;2023-11-21T00:09:13;10.10;;;4.27;;
5845;SDS011;2949;50.778;7.094;2023-11-21T00:11:43;9.30;;;4.47;;
5845;SDS011;2949;50.778;7.094;2023-11-21T00:14:09;7.03;;;4.03;;
5845;SDS011;2949;50.778;7.094;2023-11-21T00:16:36;11.00;;;4.67;;
5845;SDS011;2949;50.778;7.094;2023-11-21T00:19:02;9.10;;;4.07;;
5845;SDS011;2949;50.778;7.094;2023-11-21T00:21:27;6.30;;;3.50;;
5845;SDS011;2949;50.778;7.094;2023-11-21T00:23:53;10.07;;;4.10;;
5845;SDS011;2949;50.778;7.094;2023-11-21T00:26:18;5.43;;;3.80;;
5845;SDS011;2949;50.778;7.094;2023-11-21T00:28:44;11.13;;;3.77;;
5845;SDS011;2949;50.778;7.094;2023-11-21T00:31:10;7.83;;;4.53;;
5845;SDS011;2949;50.778;7.094;2023-11-21T00:33:35;8.60;;;4.23;;
5845;SDS011;2949;50.778;7.094;2023-11-21T00:36:01;5.63;;;3.93;;
5845;SDS011;2949;50.778;7.094;2023-11-21T00:38:27;8.47;;;4.57;;
5845;SDS011;2949;50.778;7.094;2023-11-21T00:40:52;13.53;;;5.50;;
5845;SDS011;2949;50.778;7.094;2023-11-21T00:43:21;12.17;;;6.17;;
5845;SDS011;2949;50.778;7.094;2023-11-21T00:45:50;12.03;;;6.40;;
5845;SDS011;2949;50.778;7.094;2023-11-21T00:48:16;8.10;;;6.50;;
5845;SDS011;2949;50.778;7.094;2023-11-21T00:50:42;15.37;;;6.97;;
5845;SDS011;2949;50.778;7.094;2023-11-21T00:53:08;10.30;;;7.00;;
5845;SDS011;2949;50.778;7.094;2023-11-21T00:55:34;13.37;;;7.20;;
5845;SDS011;2949;50.778;7.094;2023-11-21T00:57:59;25.97;;;8.33;;
5845;SDS011;2949;50.778;7.094;2023-11-21T01:00:27;19.23;;;8.93;;
5845;SDS011;2949;50.778;7.094;2023-11-21T01:02:53;13.93;;;8.10;;
5845;SDS011;2949;50.778;7.094;2023-11-21T01:05:18;13.57;;;8.27;;
5845;SDS011;2949;50.778;7.094;2023-11-21T01:07:44;16.07;;;8.97;;
5845;SDS011;2949;50.778;7.094;2023-11-21T01:10:10;20.60;;;8.83;;
5845;SDS011;2949;50.778;7.094;2023-11-21T01:12:36;18.43;;;7.97;;
5845;SDS011;2949;50.778;7.094;2023-11-21T01:15:03;15.57;;;8.40;;
5845;SDS011;2949;50.778;7.094;2023-11-21T01:17:32;15.70;;;9.13;;
5845;SDS011;2949;50.778;7.094;2023-11-21T01:19:59;17.57;;;10.23;;
5845;SDS011;2949;50.778;7.094;2023-11-21T01:22:25;18.80;;;8.87;;
5845;SDS011;2949;50.778;7.094;2023-11-21T01:24:51;27.43;;;10.33;;
5845;SDS011;2949;50.778;7.094;2023-11-21T01:27:18;23.40;;;9.23;;
5845;SDS011;2949;50.778;7.094;2023-11-21T01:29:43;15.60;;;9.67;;
5845;SDS011;2949;50.778;7.094;2023-11-21T01:32:09;15.97;;;8.63;;
5845;SDS011;2949;50.778;7.094;2023-11-21T01:34:35;13.50;;;8.97;;
5845;SDS011;2949;50.778;7.094;2023-11-21T01:37:01;15.33;;;9.20;;
5845;SDS011;2949;50.778;7.094;2023-11-21T01:39:27;22.17;;;8.67;;
5845;SDS011;2949;50.778;7.094;2023-11-21T01:41:53;19.73;;;9.20;;
5845;SDS011;2949;50.778;7.094;2023-11-21T01:44:18;20.23;;;10.00;;
5845;SDS011;2949;50.778;7.094;2023-11-21T01:46:44;17.20;;;8.60;;
5845;SDS011;2949;50.778;7.094;2023-11-21T01:49:11;13.63;;;9.60;;
5845;SDS011;2949;50.778;7.094;2023-11-21T01:51:38;27.10;;;10.20;;
5845;SDS011;2949;50.778;7.094;2023-11-21T01:54:05;21.80;;;9.40;;
5845;SDS011;2949;50.778;7.094;2023-11-21T01:56:31;23.10;;;9.80;;
5845;SDS011;2949;50.778;7.094;2023-11-21T01:58:57;19.87;;;9.53;;
5845;SDS011;2949;50.778;7.094;2023-11-21T02:01:23;26.20;;;10.10;;
5845;SDS011;2949;50.778;7.094;2023-11-21T02:03:48;15.87;;;8.40;;
5845;SDS011;2949;50.778;7.094;2023-11-21T02:06:14;15.67;;;8.40;;
5845;SDS011;2949;50.778;7.094;2023-11-21T02:08:39;24.20;;;9.10;;
5845;SDS011;2949;50.778;7.094;2023-11-21T02:11:07;15.53;;;9.33;;
5845;SDS011;2949;50.778;7.094;2023-11-21T02:13:34;18.17;;;9.57;;
5845;SDS011;2949;50.778;7.094;2023-11-21T02:16:00;15.70;;;9.90;;
5845;SDS011;2949;50.778;7.094;2023-11-21T02:18:26;16.13;;;9.80;;
5845;SDS011;2949;50.778;7.094;2023-11-21T02:20:54;16.87;;;8.90;;
5845;SDS011;2949;50.778;7.094;2023-11-21T02:23:20;14.97;;;7.90;;
5845;SDS011;2949;50.778;7.094;2023-11-21T02:25:46;21.90;;;9.13;;
5845;SDS011;2949;50.778;7.094;2023-11-21T02:28:12;21.70;;;9.80;;
5845;SDS011;2949;50.778;7.094;2023-11-21T02:30:40;15.73;;;9.97;;
5845;SDS011;2949;50.778;7.094;2023-11-21T02:33:05;17.00;;;9.70;;
5845;SDS011;2949;50.778;7.094;2023-11-21T02:35:32;24.83;;;9.50;;
5845;SDS011;2949;50.778;7.094;2023-11-21T02:37:57;16.93;;;9.50;;
5845;SDS011;2949;50.778;7.094;2023-11-21T02:40:23;18.87;;;8.93;;
5845;SDS011;2949;50.778;7.094;2023-11-21T02:42:50;17.10;;;10.90;;
5845;SDS011;2949;50.778;7.094;2023-11-21T02:45:16;19.27;;;10.47;;
5845;SDS011;2949;50.778;7.094;2023-11-21T02:47:42;15.23;;;9.60;;
5845;SDS011;2949;50.778;7.094;2023-11-21T02:50:08;23.97;;;10.47;;
5845;SDS011;2949;50.778;7.094;2023-11-21T02:52:34;21.77;;;10.30;;
5845;SDS011;2949;50.778;7.094;2023-11-21T02:55:03;20.77;;;10.33;;
5845;SDS011;2949;50.778;7.094;2023-11-21T02:57:29;27.27;;;11.80;;
5845;SDS011;2949;50.778;7.094;2023-11-21T02:59:55;23.87;;;11.67;;
5845;SDS011;2949;50.778;7.094;2023-11-21T03:02:21;18.80;;;10.20;;
5845;SDS011;2949;50.778;7.094;2023-11-21T03:04:47;27.80;;;13.43;;
5845;SDS011;2949;50.778;7.094;2023-11-21T03:07:14;25.00;;;11.97;;
5845;SDS011;2949;50.778;7.094;2023-11-21T03:09:40;24.20;;;11.13;;
5845;SDS011;2949;50.778;7.094;2023-11-21T03:12:05;16.77;;;11.17;;
5845;SDS011;2949;50.778;7.094;2023-11-21T03:14:31;26.53;;;12.00;;
5845;SDS011;2949;50.778;7.094;2023-11-21T03:16:56;30.90;;;13.43;;
5845;SDS011;2949;50.778;7.094;2023-11-21T03:19:22;23.97;;;12.63;;
5845;SDS011;2949;50.778;7.094;2023-11-21T03:21:48;24.27;;;13.80;;
5845;SDS011;2949;50.778;7.094;2023-11-21T03:24:14;27.53;;;13.77;;
5845;SDS011;2949;50.778;7.094;2023-11-21T03:26:43;30.70;;;12.90;;
5845;SDS011;2949;50.778;7.094;2023-11-21T03:29:09;34.93;;;14.73;;
5845;SDS011;2949;50.778;7.094;2023-11-21T03:31:35;33.70;;;14.30;;
5845;SDS011;2949;50.778;7.094;2023-11-21T03:34:01;37.83;;;14.47;;
5845;SDS011;2949;50.778;7.094;2023-11-21T03:36:26;27.20;;;14.50;;
5845;SDS011;2949;50.778;7.094;2023-11-21T03:38:52;24.63;;;14.50;;
5845;SDS011;2949;50.778;7.094;2023-11-21T03:41:18;33.23;;;14.90;;
5845;SDS011;2949;50.778;7.094;2023-11-21T03:43:43;24.70;;;15.27;;
5845;SDS011;2949;50.778;7.094;2023-11-21T03:46:09;30.50;;;14.60;;
5845;SDS011;2949;50.778;7.094;2023-11-21T03:48:35;31.33;;;16.37;;
5845;SDS011;2949;50.778;7.094;2023-11-21T03:51:00;37.10;;;15.83;;
5845;SDS011;2949;50.778;7.094;2023-11-21T03:53:26;30.80;;;16.27;;
5845;SDS011;2949;50.778;7.094;2023-11-21T03:55:51;32.93;;;15.80;;
5845;SDS011;2949;50.778;7.094;2023-11-21T03:58:17;26.63;;;14.97;;
5845;SDS011;2949;50.778;7.094;2023-11-21T04:00:42;28.80;;;17.23;;
5845;SDS011;2949;50.778;7.094;2023-11-21T04:03:08;40.30;;;17.87;;
5845;SDS011;2949;50.778;7.094;2023-11-21T04:05:33;32.83;;;17.30;;
5845;SDS011;2949;50.778;7.094;2023-11-21T04:07:59;43.20;;;19.67;;
5845;SDS011;2949;50.778;7.094;2023-11-21T04:10:24;39.33;;;17.10;;
5845;SDS011;2949;50.778;7.094;2023-11-21T04:12:50;42.00;;;18.73;;
5845;SDS011;2949;50.778;7.094;2023-11-21T04:15:15;39.70;;;19.50;;
5845;SDS011;2949;50.778;7.094;2023-11-21T04:17:42;48.57;;;21.87;;
5845;SDS011;2949;50.778;7.094;2023-11-21T04:20:08;55.67;;;19.93;;
5845;SDS011;2949;50.778;7.094;2023-11-21T04:22:41;42.23;;;22.03;;
5845;SDS011;2949;50.778;7.094;2023-11-21T04:25:09;36.60;;;20.73;;
5845;SDS011;2949;50.778;7.094;2023-11-21T04:27:39;42.30;;;20.77;;
5845;SDS011;2949;50.778;7.094;2023-11-21T04:30:05;44.07;;;20.07;;
5845;SDS011;2949;50.778;7.094;2023-11-21T04:32:31;45.87;;;21.07;;
5845;SDS011;2949;50.778;7.094;2023-11-21T04:34:57;52.00;;;22.40;;
5845;SDS011;2949;50.778;7.094;2023-11-21T04:37:22;47.40;;;21.20;;
5845;SDS011;2949;50.778;7.094;2023-11-21T04:39:48;43.97;;;21.03;;
5845;SDS011;2949;50.778;7.094;2023-11-21T04:42:14;39.43;;;21.23;;
5845;SDS011;2949;50.778;7.094;2023-11-21T04:44:39;44.73;;;20.23;;
5845;SDS011;2949;50.778;7.094;2023-11-21T04:47:06;35.67;;;18.67;;
5845;SDS011;2949;50.778;7.094;2023-11-21T04:49:32;40.33;;;19.40;;
5845;SDS011;2949;50.778;7.094;2023-11-21T04:51:58;36.03;;;17.93;;
5845;SDS011;2949;50.778;7.094;2023-11-21T04:54:23;53.20;;;20.17;;
5845;SDS011;2949;50.778;7.094;2023-11-21T04:56:49;36.73;;;19.60;;
5845;SDS011;2949;50.778;7.094;2023-11-21T04:59:15;38.90;;;20.30;;
5845;SDS011;2949;50.778;7.094;2023-11-21T05:01:40;43.77;;;18.07;;
5845;SDS011;2949;50.778;7.094;2023-11-21T05:04:06;35.87;;;19.17;;
5845;SDS011;2949;50.778;7.094;2023-11-21T05:06:33;39.37;;;18.53;;
5845;SDS011;2949;50.778;7.094;2023-11-21T05:08:59;54.33;;;19.50;;
5845;SDS011;2949;50.778;7.094;2023-11-21T05:11:25;46.10;;;19.97;;
5845;SDS011;2949;50.778;7.094;2023-11-21T05:13:51;39.40;;;19.30;;
5845;SDS011;2949;50.778;7.094;2023-11-21T05:16:18;57.13;;;21.03;;
5845;SDS011;2949;50.778;7.094;2023-11-21T05:18:44;46.63;;;20.00;;
5845;SDS011;2949;50.778;7.094;2023-11-21T05:21:10;47.63;;;19.70;;
5845;SDS011;2949;50.778;7.094;2023-11-21T05:23:35;44.83;;;19.80;;
5845;SDS011;2949;50.778;7.094;2023-11-21T05:26:02;48.20;;;19.40;;
5845;SDS011;2949;50.778;7.094;2023-11-21T05:28:28;58.63;;;21.30;;
5845;SDS011;2949;50.778;7.094;2023-11-21T05:30:54;54.87;;;21.37;;
5845;SDS011;2949;50.778;7.094;2023-11-21T05:33:20;43.47;;;20.83;;
5845;SDS011;2949;50.778;7.094;2023-11-21T05:35:45;46.70;;;21.13;;
5845;SDS011;2949;50.778;7.094;2023-11-21T05:38:13;49.17;;;20.20;;
5845;SDS011;2949;50.778;7.094;2023-11-21T05:40:38;56.10;;;22.50;;
5845;SDS011;2949;50.778;7.094;2023-11-21T05:43:04;51.80;;;22.40;;
5845;SDS011;2949;50.778;7.094;2023-11-21T05:45:30;56.13;;;22.30;;
5845;SDS011;2949;50.778;7.094;2023-11-21T05:47:56;54.67;;;23.03;;
5845;SDS011;2949;50.778;7.094;2023-11-21T05:50:22;53.07;;;20.17;;
5845;SDS011;2949;50.778;7.094;2023-11-21T05:52:48;56.07;;;23.53;;
5845;SDS011;2949;50.778;7.094;2023-11-21T05:55:14;42.90;;;20.40;;
5845;SDS011;2949;50.778;7.094;2023-11-21T05:57:40;43.67;;;20.10;;
5845;SDS011;2949;50.778;7.094;2023-11-21T06:00:14;45.50;;;20.90;;
5845;SDS011;2949;50.778;7.094;2023-11-21T06:02:50;45.83;;;20.57;;
5845;SDS011;2949;50.778;7.094;2023-11-21T06:05:18;51.23;;;21.20;;
5845;SDS011;2949;50.778;7.094;2023-11-21T06:07:45;43.07;;;20.70;;
5845;SDS011;2949;50.778;7.094;2023-11-21T06:10:11;52.97;;;20.70;;
5845;SDS011;2949;50.778;7.094;2023-11-21T06:12:39;39.47;;;19.87;;
5845;SDS011;2949;50.778;7.094;2023-11-21T06:15:05;47.93;;;20.33;;
5845;SDS011;2949;50.778;7.094;2023-11-21T06:17:33;54.90;;;20.70;;
5845;SDS011;2949;50.778;7.094;2023-11-21T06:20:03;49.53;;;22.93;;
5845;SDS011;2949;50.778;7.094;2023-11-21T06:22:34;54.67;;;21.23;;
5845;SDS011;2949;50.778;7.094;2023-11-21T06:25:10;60.13;;;22.07;;
5845;SDS011;2949;50.778;7.094;2023-11-21T06:27:38;63.00;;;21.57;;
5845;SDS011;2949;50.778;7.094;2023-11-21T06:30:08;53.63;;;21.80;;
5845;SDS011;2949;50.778;7.094;2023-11-21T06:32:38;68.87;;;24.60;;
5845;SDS011;2949;50.778;7.094;2023-11-21T06:35:07;67.07;;;23.47;;
5845;SDS011;2949;50.778;7.094;2023-11-21T06:37:36;72.63;;;23.93;;
5845;SDS011;2949;50.778;7.094;2023-11-21T06:40:02;62.73;;;22.20;;
5845;SDS011;2949;50.778;7.094;2023-11-21T06:42:29;54.47;;;22.00;;
5845;SDS011;2949;50.778;7.094;2023-11-21T06:44:55;55.10;;;23.50;;
5845;SDS011;2949;50.778;7.094;2023-11-21T06:47:22;54.57;;;21.00;;
5845;SDS011;2949;50.778;7.094;2023-11-21T06:49:52;58.70;;;21.97;;
5845;SDS011;2949;50.778;7.094;2023-11-21T06:52:18;67.50;;;21.43;;
5845;SDS011;2949;50.778;7.094;2023-11-21T06:54:44;55.50;;;21.60;;
5845;SDS011;2949;50.778;7.094;2023-11-21T06:57:11;49.73;;;21.77;;
5845;SDS011;2949;50.778;7.094;2023-11-21T06:59:36;55.30;;;21.47;;
5845;SDS011;2949;50.778;7.094;2023-11-21T07:02:02;59.07;;;21.30;;
5845;SDS011;2949;50.778;7.094;2023-11-21T07:04:29;60.33;;;20.43;;
5845;SDS011;2949;50.778;7.094;2023-11-21T07:06:55;47.03;;;20.20;;
5845;SDS011;2949;50.778;7.094;2023-11-21T07:09:21;51.83;;;19.33;;
5845;SDS011;2949;50.778;7.094;2023-11-21T07:11:47;56.20;;;19.90;;
5845;SDS011;2949;50.778;7.094;2023-11-21T07:14:13;52.47;;;19.00;;
5845;SDS011;2949;50.778;7.094;2023-11-21T07:16:39;45.17;;;18.80;;
5845;SDS011;2949;50.778;7.094;2023-11-21T07:19:05;52.80;;;20.03;;
5845;SDS011;2949;50.778;7.094;2023-11-21T07:21:32;47.27;;;18.70;;
5845;SDS011;2949;50.778;7.094;2023-11-21T07:23:59;46.13;;;17.40;;
5845;SDS011;2949;50.778;7.094;2023-11-21T07:26:26;42.27;;;17.93;;
5845;SDS011;2949;50.778;7.094;2023-11-21T07:28:52;45.53;;;19.27;;
5845;SDS011;2949;50.778;7.094;2023-11-21T07:31:18;48.70;;;17.50;;
5845;SDS011;2949;50.778;7.094;2023-11-21T07:33:45;48.60;;;17.70;;
5845;SDS011;2949;50.778;7.094;2023-11-21T07:36:14;40.57;;;16.63;;
5845;SDS011;2949;50.778;7.094;2023-11-21T07:38:41;37.10;;;18.10;;
5845;SDS011;2949;50.778;7.094;2023-11-21T07:41:07;42.23;;;17.60;;
5845;SDS011;2949;50.778;7.094;2023-11-21T07:43:34;43.60;;;20.03;;
5845;SDS011;2949;50.778;7.094;2023-11-21T07:46:03;42.23;;;18.33;;
5845;SDS011;2949;50.778;7.094;2023-11-21T07:48:30;39.57;;;18.23;;
5845;SDS011;2949;50.778;7.094;2023-11-21T07:50:56;37.10;;;17.70;;
5845;SDS011;2949;50.778;7.094;2023-11-21T07:53:23;48.90;;;20.20;;
5845;SDS011;2949;50.778;7.094;2023-11-21T07:55:55;44.67;;;18.70;;
5845;SDS011;2949;50.778;7.094;2023-11-21T07:58:21;44.40;;;17.43;;
5845;SDS011;2949;50.778;7.094;2023-11-21T08:00:46;51.17;;;19.13;;
5845;SDS011;2949;50.778;7.094;2023-11-21T08:03:15;42.07;;;17.90;;
5845;SDS011;2949;50.778;7.094;2023-11-21T08:05:42;45.93;;;19.17;;
5845;SDS011;2949;50.778;7.094;2023-11-21T08:08:08;46.13;;;18.97;;
5845;SDS011;2949;50.778;7.094;2023-11-21T08:10:33;42.50;;;19.53;;
5845;SDS011;2949;50.778;7.094;2023-11-21T08:13:01;36.07;;;17.57;;
5845;SDS011;2949;50.778;7.094;2023-11-21T08:15:27;47.33;;;19.67;;
5845;SDS011;2949;50.778;7.094;2023-11-21T08:17:53;46.63;;;20.10;;
5845;SDS011;2949;50.778;7.094;2023-11-21T08:20:18;43.50;;;19.47;;
5845;SDS011;2949;50.778;7.094;2023-11-21T08:22:44;40.57;;;17.13;;
5845;SDS011;2949;50.778;7.094;2023-11-21T08:25:10;42.87;;;19.07;;
5845;SDS011;2949;50.778;7.094;2023-11-21T08:27:36;37.37;;;17.50;;
5845;SDS011;2949;50.778;7.094;2023-11-21T08:30:05;40.57;;;18.30;;
5845;SDS011;2949;50.778;7.094;2023-11-21T08:32:32;36.70;;;17.10;;
5845;SDS011;2949;50.778;7.094;2023-11-21T08:34:58;36.10;;;17.70;;
5845;SDS011;2949;50.778;7.094;2023-11-21T08:37:24;33.40;;;17.00;;
5845;SDS011;2949;50.778;7.094;2023-11-21T08:39:52;42.37;;;16.73;;
5845;SDS011;2949;50.778;7.094;2023-11-21T08:42:18;43.93;;;18.33;;
5845;SDS011;2949;50.778;7.094;2023-11-21T08:44:44;48.03;;;17.80;;
5845;SDS011;2949;50.778;7.094;2023-11-21T08:47:09;39.63;;;18.07;;
5845;SDS011;2949;50.778;7.094;2023-11-21T08:49:35;42.73;;;18.80;;
5845;SDS011;2949;50.778;7.094;2023-11-21T08:52:00;36.60;;;17.00;;
5845;SDS011;2949;50.778;7.094;2023-11-21T08:54:26;30.57;;;15.93;;
5845;SDS011;2949;50.778;7.094;2023-11-21T08:56:52;34.10;;;17.43;;
5845;SDS011;2949;50.778;7.094;2023-11-21T08:59:18;30.07;;;15.47;;
5845;SDS011;2949;50.778;7.094;2023-11-21T09:01:45;37.67;;;17.43;;
5845;SDS011;2949;50.778;7.094;2023-11-21T09:04:10;41.00;;;16.87;;
5845;SDS011;2949;50.778;7.094;2023-11-21T09:06:36;33.90;;;16.50;;
5845;SDS011;2949;50.778;7.094;2023-11-21T09:09:01;28.43;;;15.67;;
5845;SDS011;2949;50.778;7.094;2023-11-21T09:11:29;33.23;;;16.30;;
5845;SDS011;2949;50.778;7.094;2023-11-21T09:13:58;36.50;;;16.43;;
5845;SDS011;2949;50.778;7.094;2023-11-21T09:16:28;36.33;;;16.80;;
5845;SDS011;2949;50.778;7.094;2023-11-21T09:18:54;39.07;;;15.00;;
5845;SDS011;2949;50.778;7.094;2023-11-21T09:21:19;32.90;;;16.03;;
5845;SDS011;2949;50.778;7.094;2023-11-21T09:23:45;38.67;;;15.40;;
5845;SDS011;2949;50.778;7.094;2023-11-21T09:26:11;29.40;;;15.17;;
5845;SDS011;2949;50.778;7.094;2023-11-21T09:28:36;35.97;;;16.63;;
5845;SDS011;2949;50.778;7.094;2023-11-21T09:31:04;32.33;;;15.90;;
5845;SDS011;2949;50.778;7.094;2023-11-21T09:33:30;37.80;;;16.47;;
5845;SDS011;2949;50.778;7.094;2023-11-21T09:35:56;33.60;;;16.73;;
5845;SDS011;2949;50.778;7.094;2023-11-21T09:38:22;39.30;;;18.80;;
5845;SDS011;2949;50.778;7.094;2023-11-21T09:40:47;41.20;;;17.93;;
5845;SDS011;2949;50.778;7.094;2023-11-21T09:43:16;42.47;;;19.83;;
5845;SDS011;2949;50.778;7.094;2023-11-21T09:45:43;42.17;;;18.70;;
5845;SDS011;2949;50.778;7.094;2023-11-21T09:48:18;49.83;;;19.40;;
5845;SDS011;2949;50.778;7.094;2023-11-21T09:50:45;45.07;;;19.30;;
5845;SDS011;2949;50.778;7.094;2023-11-21T09:55:46;41.17;;;18.27;;
5845;SDS011;2949;50.778;7.094;2023-11-21T09:58:15;43.87;;;17.90;;
5845;SDS011;2949;50.778;7.094;2023-11-21T10:00:42;47.40;;;18.27;;
5845;SDS011;2949;50.778;7.094;2023-11-21T10:03:11;48.43;;;18.00;;
5845;SDS011;2949;50.778;7.094;2023-11-21T10:05:38;39.90;;;18.70;;
5845;SDS011;2949;50.778;7.094;2023-11-21T10:08:07;43.47;;;19.30;;
5845;SDS011;2949;50.778;7.094;2023-11-21T10:10:33;46.00;;;19.77;;
5845;SDS011;2949;50.778;7.094;2023-11-21T10:13:01;41.87;;;18.70;;
5845;SDS011;2949;50.778;7.094;2023-11-21T10:15:31;44.30;;;19.50;;
5845;SDS011;2949;50.778;7.094;2023-11-21T10:17:59;40.50;;;19.77;;
5845;SDS011;2949;50.778;7.094;2023-11-21T10:20:28;42.80;;;19.90;;
5845;SDS011;2949;50.778;7.094;2023-11-21T10:22:55;47.87;;;19.40;;
5845;SDS011;2949;50.778;7.094;2023-11-21T10:25:21;35.53;;;18.77;;
5845;SDS011;2949;50.778;7.094;2023-11-21T10:27:48;47.53;;;19.63;;
5845;SDS011;2949;50.778;7.094;2023-11-21T10:30:17;48.67;;;21.17;;
5845;SDS011;2949;50.778;7.094;2023-11-21T10:32:43;49.70;;;18.90;;
5845;SDS011;2949;50.778;7.094;2023-11-21T10:35:09;53.00;;;22.60;;
5845;SDS011;2949;50.778;7.094;2023-11-21T10:37:41;48.23;;;19.87;;
5845;SDS011;2949;50.778;7.094;2023-11-21T10:40:09;46.73;;;19.23;;
5845;SDS011;2949;50.778;7.094;2023-11-21T10:42:38;47.30;;;19.47;;
5845;SDS011;2949;50.778;7.094;2023-11-21T10:45:07;44.87;;;19.83;;
5845;SDS011;2949;50.778;7.094;2023-11-21T10:47:40;40.40;;;19.40;;
5845;SDS011;2949;50.778;7.094;2023-11-21T10:50:06;39.50;;;18.67;;
5845;SDS011;2949;50.778;7.094;2023-11-21T10:52:36;33.53;;;16.83;;
5845;SDS011;2949;50.778;7.094;2023-11-21T10:55:19;36.10;;;17.97;;
5845;SDS011;2949;50.778;7.094;2023-11-21T10:57:48;40.13;;;19.50;;
5845;SDS011;2949;50.778;7.094;2023-11-21T11:00:15;41.57;;;18.70;;
5845;SDS011;2949;50.778;7.094;2023-11-21T11:02:44;38.10;;;18.20;;
5845;SDS011;2949;50.778;7.094;2023-11-21T11:05:12;46.80;;;20.13;;
5845;SDS011;2949;50.778;7.094;2023-11-21T11:07:39;48.60;;;20.03;;
5845;SDS011;2949;50.778;7.094;2023-11-21T11:10:08;41.37;;;18.60;;
5845;SDS011;2949;50.778;7.094;2023-11-21T11:12:39;49.73;;;20.40;;
5845;SDS011;2949;50.778;7.094;2023-11-21T11:15:06;50.83;;;21.73;;
5845;SDS011;2949;50.778;7.094;2023-11-21T11:17:34;50.30;;;20.67;;
5845;SDS011;2949;50.778;7.094;2023-11-21T11:20:03;47.63;;;19.60;;
5845;SDS011;2949;50.778;7.094;2023-11-21T11:22:37;42.70;;;20.17;;
5845;SDS011;2949;50.778;7.094;2023-11-21T11:28:10;52.60;;;23.50;;
5845;SDS011;2949;50.778;7.094;2023-11-21T11:30:50;53.27;;;21.90;;
5845;SDS011;2949;50.778;7.094;2023-11-21T11:36:49;45.67;;;20.07;;
5845;SDS011;2949;50.778;7.094;2023-11-21T11:42:16;46.97;;;19.57;;
5845;SDS011;2949;50.778;7.094;2023-11-21T11:47:22;46.33;;;21.03;;
5845;SDS011;2949;50.778;7.094;2023-11-21T11:49:58;46.30;;;17.33;;
5845;SDS011;2949;50.778;7.094;2023-11-21T11:52:46;38.80;;;18.80;;
5845;SDS011;2949;50.778;7.094;2023-11-21T11:55:14;43.10;;;18.33;;
5845;SDS011;2949;50.778;7.094;2023-11-21T11:57:43;45.90;;;19.17;;
5845;SDS011;2949;50.778;7.094;2023-11-21T12:00:10;41.13;;;20.00;;
5845;SDS011;2949;50.778;7.094;2023-11-21T12:02:40;37.90;;;19.80;;
5845;SDS011;2949;50.778;7.094;2023-11-21T12:05:08;38.30;;;20.60;;
5845;SDS011;2949;50.778;7.094;2023-11-21T12:07:45;34.30;;;17.17;;
5845;SDS011;2949;50.778;7.094;2023-11-21T12:10:12;36.90;;;19.57;;
5845;SDS011;2949;50.778;7.094;2023-11-21T12:12:48;39.43;;;18.07;;
5845;SDS011;2949;50.778;7.094;2023-11-21T12:15:15;37.83;;;17.93;;
5845;SDS011;2949;50.778;7.094;2023-11-21T12:17:41;31.77;;;15.77;;
5845;SDS011;2949;50.778;7.094;2023-11-21T12:20:13;34.30;;;17.20;;
5845;SDS011;2949;50.778;7.094;2023-11-21T12:22:44;38.37;;;19.53;;
5845;SDS011;2949;50.778;7.094;2023-11-21T12:25:20;43.57;;;18.70;;
5845;SDS011;2949;50.778;7.094;2023-11-21T12:27:47;35.20;;;17.30;;
5845;SDS011;2949;50.778;7.094;2023-11-21T12:30:18;37.67;;;18.43;;
5845;SDS011;2949;50.778;7.094;2023-11-21T12:32:44;46.83;;;17.33;;
5845;SDS011;2949;50.778;7.094;2023-11-21T12:35:13;34.33;;;17.43;;
5845;SDS011;2949;50.778;7.094;2023-11-21T12:37:40;34.70;;;16.27;;
5845;SDS011;2949;50.778;7.094;2023-11-21T12:40:08;35.17;;;16.70;;
5845;SDS011;2949;50.778;7.094;2023-11-21T12:42:36;40.03;;;16.53;;
5845;SDS011;2949;50.778;7.094;2023-11-21T12:47:43;35.83;;;15.30;;
5845;SDS011;2949;50.778;7.094;2023-11-21T12:50:14;38.23;;;15.87;;
5845;SDS011;2949;50.778;7.094;2023-11-21T12:52:40;40.50;;;14.93;;
5845;SDS011;2949;50.778;7.094;2023-11-21T12:55:09;35.07;;;17.00;;
5845;SDS011;2949;50.778;7.094;2023-11-21T12:57:34;38.60;;;17.10;;
5845;SDS011;2949;50.778;7.094;2023-11-21T13:00:03;34.73;;;16.40;;
5845;SDS011;2949;50.778;7.094;2023-11-21T13:02:37;38.07;;;17.33;;
5845;SDS011;2949;50.778;7.094;2023-11-21T13:05:03;40.97;;;16.67;;
5845;SDS011;2949;50.778;7.094;2023-11-21T13:07:40;38.40;;;16.03;;
5845;SDS011;2949;50.778;7.094;2023-11-21T13:10:12;38.83;;;17.60;;
5845;SDS011;2949;50.778;7.094;2023-11-21T13:12:42;41.23;;;17.43;;
5845;SDS011;2949;50.778;7.094;2023-11-21T13:15:13;41.83;;;16.00;;
5845;SDS011;2949;50.778;7.094;2023-11-21T13:17:42;47.07;;;17.37;;
5845;SDS011;2949;50.778;7.094;2023-11-21T13:20:11;41.77;;;17.43;;
5845;SDS011;2949;50.778;7.094;2023-11-21T13:22:51;39.23;;;16.83;;
5845;SDS011;2949;50.778;7.094;2023-11-21T13:25:26;40.33;;;17.60;;
5845;SDS011;2949;50.778;7.094;2023-11-21T13:27:53;36.73;;;17.03;;
5845;SDS011;2949;50.778;7.094;2023-11-21T13:30:23;38.80;;;17.13;;
5845;SDS011;2949;50.778;7.094;2023-11-21T13:32:58;44.17;;;17.23;;
5845;SDS011;2949;50.778;7.094;2023-11-21T13:35:31;48.00;;;17.90;;
5845;SDS011;2949;50.778;7.094;2023-11-21T13:38:12;39.07;;;17.17;;
5845;SDS011;2949;50.778;7.094;2023-11-21T13:40:40;34.20;;;15.87;;
5845;SDS011;2949;50.778;7.094;2023-11-21T13:43:14;36.20;;;16.50;;
5845;SDS011;2949;50.778;7.094;2023-11-21T13:45:46;41.60;;;17.60;;
5845;SDS011;2949;50.778;7.094;2023-11-21T13:48:16;45.30;;;16.00;;
5845;SDS011;2949;50.778;7.094;2023-11-21T13:50:53;38.97;;;16.50;;
5845;SDS011;2949;50.778;7.094;2023-11-21T13:53:35;35.93;;;15.40;;
5845;SDS011;2949;50.778;7.094;2023-11-21T13:56:02;32.63;;;15.77;;
5845;SDS011;2949;50.778;7.094;2023-11-21T13:58:28;38.00;;;16.90;;
5845;SDS011;2949;50.778;7.094;2023-11-21T14:01:11;47.23;;;17.33;;
5845;SDS011;2949;50.778;7.094;2023-11-21T14:06:44;42.20;;;16.63;;
5845;SDS011;2949;50.778;7.094;2023-11-21T14:09:18;34.07;;;16.70;;
5845;SDS011;2949;50.778;7.094;2023-11-21T14:11:50;37.87;;;16.27;;
5845;SDS011;2949;50.778;7.094;2023-11-21T14:14:21;48.30;;;16.33;;
5845;SDS011;2949;50.778;7.094;2023-11-21T14:16:49;37.93;;;16.67;;
5845;SDS011;2949;50.778;7.094;2023-11-21T14:19:15;44.70;;;17.97;;
5845;SDS011;2949;50.778;7.094;2023-11-21T14:21:42;43.30;;;17.47;;
5845;SDS011;2949;50.778;7.094;2023-11-21T14:24:08;41.53;;;18.60;;
5845;SDS011;2949;50.778;7.094;2023-11-21T14:26:34;50.60;;;19.83;;
5845;SDS011;2949;50.778;7.094;2023-11-21T14:29:00;41.33;;;18.73;;
5845;SDS011;2949;50.778;7.094;2023-11-21T14:31:26;43.50;;;19.87;;
5845;SDS011;2949;50.778;7.094;2023-11-21T14:33:54;47.27;;;18.83;;
5845;SDS011;2949;50.778;7.094;2023-11-21T14:36:19;51.60;;;18.03;;
5845;SDS011;2949;50.778;7.094;2023-11-21T14:38:45;52.47;;;21.20;;
5845;SDS011;2949;50.778;7.094;2023-11-21T14:41:10;54.43;;;20.97;;
5845;SDS011;2949;50.778;7.094;2023-11-21T14:43:36;46.23;;;19.07;;
5845;SDS011;2949;50.778;7.094;2023-11-21T14:46:03;48.00;;;18.30;;
5845;SDS011;2949;50.778;7.094;2023-11-21T14:48:33;46.60;;;19.83;;
5845;SDS011;2949;50.778;7.094;2023-11-21T14:51:09;47.13;;;17.70;;
5845;SDS011;2949;50.778;7.094;2023-11-21T14:53:37;37.90;;;17.50;;
5845;SDS011;2949;50.778;7.094;2023-11-21T14:56:21;54.13;;;19.07;;
5845;SDS011;2949;50.778;7.094;2023-11-21T14:58:56;45.30;;;18.17;;
5845;SDS011;2949;50.778;7.094;2023-11-21T15:01:22;55.50;;;19.40;;
5845;SDS011;2949;50.778;7.094;2023-11-21T15:04:11;44.93;;;19.47;;
5845;SDS011;2949;50.778;7.094;2023-11-21T15:06:45;56.07;;;19.23;;
5845;SDS011;2949;50.778;7.094;2023-11-21T15:09:13;45.13;;;19.77;;
5845;SDS011;2949;50.778;7.094;2023-11-21T15:11:38;57.97;;;18.47;;
5845;SDS011;2949;50.778;7.094;2023-11-21T15:14:04;56.67;;;21.30;;